Time;durP1;ratioP1;P1;durP2;ratioP2;P2;SDS_P1;SDS_P2;PMS_P1;PMS_P2;Temp;Humidity;BMP_temperature;BMP_pressure;BME280_temperature;BME280_humidity;BME280_pressure;Samples;Min_cycle;Max_cycle;Signal;HPM_P1;HPM_P2
2022/07/23 00:00:01;;;;;;;;;32.25;28.75;;;;;20.67;78.45;100918.03;5016247;28;45542;-69
2022/07/23 00:02:27;;;;;;;;;32.50;29.75;;;;;20.64;78.69;100904.91;5012916;28;45209;-71
2022/07/23 00:04:52;;;;;;;;;33.75;29.50;;;;;20.67;78.71;100918.84;5016346;28;45331;-69
2022/07/23 00:07:17;;;;;;;;;30.00;28.25;;;;;20.63;78.25;100905.88;5018866;28;45466;-79
2022/07/23 00:09:43;;;;;;;;;32.25;29.00;;;;;20.63;78.27;100916.56;5024536;28;45141;-75
2022/07/23 00:12:08;;;;;;;;;31.75;28.75;;;;;20.64;78.69;100910.25;5021058;28;45444;-77
2022/07/23 00:14:33;;;;;;;;;30.50;28.25;;;;;20.73;77.91;100912.19;5017861;28;45480;-71
2022/07/23 00:16:59;;;;;;;;;29.75;27.75;;;;;20.76;77.86;100917.31;5015399;28;45412;-77
2022/07/23 00:19:24;;;;;;;;;26.00;24.50;;;;;20.77;77.22;100913.66;5018939;28;45513;-79
2022/07/23 00:21:50;;;;;;;;;24.00;23.25;;;;;20.76;77.12;100914.63;5019462;28;45374;-78
2022/07/23 00:24:15;;;;;;;;;26.75;26.75;;;;;20.73;77.17;100913.06;5015153;28;47415;-80
2022/07/23 00:26:40;;;;;;;;;37.50;32.00;;;;;20.68;76.99;100904.56;5016567;28;45374;-77
2022/07/23 00:29:06;;;;;;;;;30.50;27.25;;;;;20.73;77.75;100915.75;5015864;28;45373;-78
2022/07/23 00:31:31;;;;;;;;;27.75;27.75;;;;;20.75;77.50;100912.09;5016664;28;45618;-75
2022/07/23 00:33:57;;;;;;;;;29.00;28.75;;;;;20.72;77.49;100899.81;5014621;28;45414;-75
2022/07/23 00:36:23;;;;;;;;;29.25;26.50;;;;;20.76;77.49;100908.44;5016176;28;45533;-76
2022/07/23 00:38:49;;;;;;;;;31.25;29.25;;;;;20.79;77.53;100906.41;5015964;28;45524;-80
2022/07/23 00:41:14;;;;;;;;;35.00;31.50;;;;;20.85;77.47;100905.91;5015384;28;45479;-78
2022/07/23 00:43:40;;;;;;;;;26.50;26.50;;;;;20.85;77.11;100900.56;5015282;28;46233;-78
2022/07/23 00:46:05;;;;;;;;;31.25;29.25;;;;;20.83;77.67;100897.16;5015562;28;45399;-70
2022/07/23 00:48:31;;;;;;;;;29.50;27.75;;;;;20.81;77.31;100893.75;5015034;28;45301;-75
2022/07/23 00:50:56;;;;;;;;;30.25;28.75;;;;;20.81;77.36;100899.13;5014761;28;45254;-72
2022/07/23 00:53:23;;;;;;;;;31.00;25.50;;;;;20.83;77.49;100904.34;5014685;28;45473;-71
2022/07/23 00:55:48;;;;;;;;;32.50;29.25;;;;;20.81;77.33;100903.63;5015534;28;45515;-68
2022/07/23 00:58:16;;;;;;;;;30.50;26.25;;;;;20.75;77.73;100896.88;5018914;28;46140;-69
2022/07/23 01:00:41;;;;;;;;;27.25;27.00;;;;;20.74;77.52;100897.88;5014697;28;45446;-75
2022/07/23 01:03:07;;;;;;;;;29.00;26.50;;;;;20.68;77.33;100893.00;5014950;28;45648;-69
2022/07/23 01:05:33;;;;;;;;;29.75;25.50;;;;;20.70;77.28;100904.41;5016081;28;45373;-71
2022/07/23 01:07:58;;;;;;;;;27.00;26.00;;;;;20.64;77.28;100897.72;5015569;28;45158;-72
2022/07/23 01:10:31;;;;;;;;;26.00;25.25;;;;;20.63;77.43;100903.19;5014223;28;45647;-69
2022/07/23 01:12:58;;;;;;;;;22.75;22.75;;;;;20.62;77.09;100897.00;5017081;28;45419;-69
2022/07/23 01:15:23;;;;;;;;;24.25;24.25;;;;;20.60;77.28;100900.75;5018308;28;45501;-72
2022/07/23 01:17:49;;;;;;;;;24.50;23.25;;;;;20.59;77.44;100894.56;5022257;28;45474;-75
2022/07/23 01:20:14;;;;;;;;;29.50;29.00;;;;;20.57;77.52;100897.38;5015925;28;45414;-74
2022/07/23 01:22:40;;;;;;;;;33.25;29.50;;;;;20.62;77.50;100896.16;5015408;28;46171;-79
2022/07/23 01:25:06;;;;;;;;;26.50;26.50;;;;;20.61;77.85;100897.13;5015617;28;45276;-77
2022/07/23 01:27:31;;;;;;;;;28.75;27.00;;;;;20.61;77.81;100891.78;5019273;28;45276;-71
2022/07/23 01:29:59;;;;;;;;;29.00;24.75;;;;;20.63;77.82;100895.19;5023846;28;45622;-76
2022/07/23 01:32:24;;;;;;;;;32.25;25.50;;;;;20.65;78.03;100898.59;5024438;28;46466;-71
2022/07/23 01:34:50;;;;;;;;;34.00;29.75;;;;;20.67;78.03;100891.31;5015416;28;45377;-72
2022/07/23 01:37:15;;;;;;;;;30.75;29.75;;;;;20.71;78.09;100898.09;5016816;28;45323;-74
2022/07/23 01:39:41;;;;;;;;;27.25;27.25;;;;;20.69;78.01;100892.03;5019597;28;45412;-71
2022/07/23 01:42:06;;;;;;;;;27.50;27.50;;;;;20.75;78.36;100893.38;5019583;28;45443;-75
2022/07/23 01:44:31;;;;;;;;;32.75;31.00;;;;;20.73;78.41;100893.50;5015426;28;45379;-73
2022/07/23 01:46:57;;;;;;;;;34.75;30.50;;;;;20.77;78.22;100896.78;5023493;28;45486;-70
2022/07/23 01:49:22;;;;;;;;;31.50;28.25;;;;;20.74;78.55;100892.53;5036438;28;45459;-72
2022/07/23 01:51:59;;;;;;;;;29.00;29.00;;;;;20.76;78.33;100895.91;5035232;28;46156;-68
2022/07/23 01:54:33;;;;;;;;;28.75;28.75;;;;;20.78;78.36;100893.16;5035090;28;45284;-70
2022/07/23 01:56:59;;;;;;;;;32.00;30.25;;;;;20.78;78.39;100887.78;5022234;28;45421;-69
2022/07/23 01:59:25;;;;;;;;;39.25;31.25;;;;;20.77;78.76;100889.59;5017976;28;45581;-76
2022/07/23 02:01:50;;;;;;;;;30.00;28.25;;;;;20.72;78.71;100895.31;5020856;28;45210;-76
2022/07/23 02:04:17;;;;;;;;;31.75;29.00;;;;;20.63;78.60;100879.16;5025224;28;45340;-71
2022/07/23 02:06:43;;;;;;;;;30.00;27.75;;;;;20.57;79.14;100877.78;5021714;28;45518;-71
2022/07/23 02:09:08;;;;;;;;;35.25;29.75;;;;;20.61;79.19;100886.44;5019944;28;45273;-71
2022/07/23 02:11:33;;;;;;;;;33.50;31.50;;;;;20.56;79.31;100879.63;5021812;28;46714;-70
2022/07/23 02:13:59;;;;;;;;;29.75;29.00;;;;;20.57;79.03;100878.66;5016413;28;45233;-72
2022/07/23 02:16:24;;;;;;;;;27.75;27.50;;;;;20.56;79.54;100873.41;5018189;28;45502;-76
2022/07/23 02:18:49;;;;;;;;;32.00;30.50;;;;;20.56;79.56;100882.31;5022039;28;45335;-77
2022/07/23 02:21:15;;;;;;;;;34.50;30.75;;;;;20.55;79.50;100874.38;5016843;28;46031;-72
2022/07/23 02:23:40;;;;;;;;;27.75;27.50;;;;;20.56;79.92;100887.66;5016614;28;45482;-73
2022/07/23 02:26:05;;;;;;;;;28.50;28.25;;;;;20.50;79.56;100885.44;5015257;28;45464;-73
2022/07/23 02:28:31;;;;;;;;;35.25;28.50;;;;;20.53;80.04;100893.22;5016704;28;45292;-75
2022/07/23 02:30:56;;;;;;;;;31.25;30.25;;;;;20.48;80.19;100898.09;5018373;28;45486;-76
2022/07/23 02:33:22;;;;;;;;;35.75;31.75;;;;;20.40;80.25;100890.66;5015468;28;45305;-71
2022/07/23 02:35:47;;;;;;;;;33.25;31.25;;;;;20.39;80.44;100893.44;5014921;28;45253;-77
2022/07/23 02:38:13;;;;;;;;;34.25;31.00;;;;;20.34;80.44;100891.13;5014659;28;45373;-78
2022/07/23 02:40:38;;;;;;;;;32.75;31.25;;;;;20.39;81.00;100901.47;5015693;28;46275;-77
2022/07/23 02:43:03;;;;;;;;;35.25;31.75;;;;;20.37;81.76;100898.88;5031909;28;45310;-76
2022/07/23 02:45:29;;;;;;;;;41.50;32.75;;;;;20.35;81.19;100914.19;5026152;28;45217;-72
2022/07/23 02:47:54;;;;;;;;;27.75;27.75;;;;;20.35;81.53;100913.34;5015754;28;45544;-70
2022/07/23 02:50:20;;;;;;;;;33.50;30.75;;;;;20.32;81.65;100911.75;5015728;28;46625;-73
2022/07/23 02:52:45;;;;;;;;;36.50;30.75;;;;;20.29;81.59;100902.16;5014984;28;45471;-79
2022/07/23 02:55:11;;;;;;;;;37.25;31.25;;;;;20.27;82.36;100903.25;5016342;28;45534;-79
2022/07/23 02:57:36;;;;;;;;;29.25;26.75;;;;;20.27;82.01;100905.91;5022768;28;45210;-70
2022/07/23 03:00:04;;;;;;;;;35.25;31.75;;;;;20.12;82.08;100883.88;5019787;28;45744;-71
2022/07/23 03:02:29;;;;;;;;;42.75;33.50;;;;;20.26;82.89;100914.91;5017695;28;45337;-73
2022/07/23 03:04:55;;;;;;;;;40.75;34.25;;;;;20.24;82.97;100914.16;5016112;28;46581;-74
2022/07/23 03:07:20;;;;;;;;;42.25;35.00;;;;;20.25;82.27;100922.06;5015012;28;45610;-69
2022/07/23 03:09:45;;;;;;;;;33.75;31.50;;;;;20.24;82.26;100912.34;5013858;28;45358;-67
2022/07/23 03:12:11;;;;;;;;;37.75;32.50;;;;;20.31;81.45;100922.56;5013578;28;45399;-69
2022/07/23 03:14:36;;;;;;;;;35.75;30.00;;;;;20.31;81.26;100923.41;5015248;28;45467;-70
2022/07/23 03:17:01;;;;;;;;;32.25;28.75;;;;;20.32;80.73;100924.28;5019794;28;45578;-72
2022/07/23 03:19:27;;;;;;;;;30.50;30.00;;;;;20.32;80.57;100929.63;5020301;28;46349;-71
2022/07/23 03:21:52;;;;;;;;;24.25;24.25;;;;;20.32;80.17;100927.78;5016107;28;45951;-73
2022/07/23 03:24:18;;;;;;;;;32.00;28.25;;;;;20.33;80.07;100928.66;5016391;28;45907;-73
2022/07/23 03:26:43;;;;;;;;;30.50;28.75;;;;;20.37;79.34;100927.44;5016123;28;45559;-69
2022/07/23 03:29:09;;;;;;;;;28.25;23.75;;;;;20.34;79.70;100941.88;5016717;28;46564;-73
2022/07/23 03:31:35;;;;;;;;;29.50;26.75;;;;;20.26;79.37;100937.13;5015275;28;45420;-71
2022/07/23 03:34:00;;;;;;;;;29.50;29.00;;;;;20.26;79.44;100938.94;5017368;28;45351;-71
2022/07/23 03:36:26;;;;;;;;;26.25;26.25;;;;;20.22;79.52;100932.13;5015984;28;45608;-69
2022/07/23 03:38:52;;;;;;;;;33.75;28.50;;;;;20.16;79.98;100937.94;5016553;28;46209;-66
2022/07/23 03:41:19;;;;;;;;;29.00;27.00;;;;;20.14;79.83;100935.34;5016984;28;45381;-69
2022/07/23 03:43:44;;;;;;;;;33.25;29.00;;;;;20.12;79.54;100937.28;5017262;28;45345;-68
2022/07/23 03:46:09;;;;;;;;;28.50;27.50;;;;;20.11;80.17;100940.94;5016305;28;45450;-70
2022/07/23 03:48:35;;;;;;;;;26.25;26.25;;;;;20.13;80.04;100936.31;5016253;28;45261;-68
2022/07/23 03:51:00;;;;;;;;;25.25;25.25;;;;;20.11;80.03;100939.13;5016564;28;45489;-70
2022/07/23 03:53:26;;;;;;;;;25.25;23.50;;;;;20.11;79.82;100939.13;5017360;28;45435;-71
2022/07/23 03:55:51;;;;;;;;;25.00;24.00;;;;;20.10;78.77;100947.22;5015832;28;45403;-69
2022/07/23 03:58:17;;;;;;;;;25.75;24.25;;;;;20.12;78.54;100951.50;4999279;28;46340;-66
2022/07/23 04:00:42;;;;;;;;;22.50;21.25;;;;;19.84;78.04;100904.63;5015996;28;45301;-70
2022/07/23 04:03:07;;;;;;;;;24.75;22.75;;;;;20.05;78.10;100942.25;5016091;28;45398;-73
2022/07/23 04:05:33;;;;;;;;;22.00;22.00;;;;;20.02;78.11;100947.81;5006981;28;45534;-72
2022/07/23 04:07:59;;;;;;;;;24.25;24.25;;;;;19.97;77.84;100958.84;5012443;28;46170;-68
2022/07/23 04:10:24;;;;;;;;;23.25;23.25;;;;;19.93;77.94;100957.34;5014942;28;45473;-72
2022/07/23 04:12:49;;;;;;;;;20.75;20.50;;;;;19.91;77.96;100956.63;5016652;28;45717;-70
2022/07/23 04:15:15;;;;;;;;;25.25;23.50;;;;;19.91;78.17;100969.97;5015521;28;45453;-69
2022/07/23 04:17:40;;;;;;;;;32.25;29.00;;;;;19.89;77.73;100958.53;5017697;28;46178;-69
2022/07/23 04:20:06;;;;;;;;;23.25;21.00;;;;;19.90;77.89;100948.75;5019086;28;45403;-69
2022/07/23 04:22:31;;;;;;;;;22.50;21.75;;;;;19.94;78.21;100958.22;5019229;28;45434;-70
2022/07/23 04:24:57;;;;;;;;;24.00;23.00;;;;;19.95;77.95;100957.25;5015138;28;45306;-70
2022/07/23 04:27:22;;;;;;;;;23.33;23.33;;;;;19.93;77.83;100956.53;5015700;28;46057;-70
2022/07/23 04:29:47;;;;;;;;;23.75;23.00;;;;;19.96;78.11;100959.81;5014203;28;45580;-72
2022/07/23 04:32:13;;;;;;;;;27.75;27.75;;;;;19.99;78.03;100966.75;5016699;28;45471;-71
2022/07/23 04:34:38;;;;;;;;;25.25;25.25;;;;;19.99;78.17;100962.25;5018048;28;45360;-70
2022/07/23 04:37:03;;;;;;;;;25.00;25.00;;;;;19.97;78.23;100969.50;5014214;28;47065;-72
2022/07/23 04:39:29;;;;;;;;;19.50;19.50;;;;;19.87;78.57;100963.13;5015732;28;45359;-71
2022/07/23 04:41:54;;;;;;;;;26.75;26.75;;;;;19.83;79.15;100961.63;5016014;28;45552;-73
2022/07/23 04:44:19;;;;;;;;;21.25;21.25;;;;;19.78;79.04;100963.78;5017333;28;45409;-71
2022/07/23 04:46:45;;;;;;;;;23.75;22.25;;;;;19.75;79.41;100972.03;5014750;28;45380;-75
2022/07/23 04:49:10;;;;;;;;;24.25;24.00;;;;;19.77;79.42;100970.09;5016491;28;45420;-74
2022/07/23 04:51:36;;;;;;;;;25.00;25.00;;;;;19.82;79.26;100966.13;5015459;28;45277;-75
2022/07/23 04:54:01;;;;;;;;;24.50;24.50;;;;;19.84;78.91;100974.88;5015349;28;45376;-72
2022/07/23 04:56:26;;;;;;;;;23.00;23.00;;;;;19.84;78.86;100969.56;5014319;28;46102;-73
2022/07/23 04:58:52;;;;;;;;;24.00;24.00;;;;;19.90;77.59;100973.59;5013937;28;45347;-71
2022/07/23 05:01:17;;;;;;;;;25.50;25.50;;;;;19.95;77.30;100973.28;5016082;28;45428;-71
2022/07/23 05:03:43;;;;;;;;;20.75;20.75;;;;;20.03;77.14;100962.88;5021506;28;45568;-72
2022/07/23 05:06:08;;;;;;;;;23.50;21.50;;;;;20.12;76.24;100972.88;5022536;28;45259;-72
2022/07/23 05:08:33;;;;;;;;;17.50;14.00;;;;;20.19;75.93;100965.28;5019463;28;45244;-71
2022/07/23 05:10:59;;;;;;;;;20.50;20.50;;;;;20.22;75.25;100970.38;5016046;28;45237;-72
2022/07/23 05:13:24;;;;;;;;;25.50;24.50;;;;;20.27;75.01;100978.03;5013973;28;45482;-76
2022/07/23 05:15:49;;;;;;;;;18.25;17.50;;;;;20.28;74.91;100971.72;5016696;28;45407;-71
2022/07/23 05:18:15;;;;;;;;;20.75;20.75;;;;;20.26;74.92;100974.53;5016003;28;45194;-72
2022/07/23 05:20:40;;;;;;;;;24.50;21.25;;;;;20.26;74.21;100973.66;5018067;28;45336;-72
2022/07/23 05:23:06;;;;;;;;;22.75;20.50;;;;;20.22;74.77;100983.72;5014512;28;45571;-75
2022/07/23 05:25:32;;;;;;;;;18.25;16.75;;;;;20.14;73.97;100970.06;5016058;28;46139;-77
2022/07/23 05:27:57;;;;;;;;;27.25;24.25;;;;;20.13;74.72;100977.25;5016056;28;45388;-76
2022/07/23 05:30:23;;;;;;;;;27.50;27.25;;;;;20.12;74.80;100969.34;5013814;28;45212;-77
2022/07/23 05:32:48;;;;;;;;;27.25;21.50;;;;;20.28;74.04;100983.28;5017698;28;45359;-75
2022/07/23 05:35:13;;;;;;;;;22.25;20.25;;;;;20.34;73.07;100981.94;5015159;28;46301;-78
2022/07/23 05:37:39;;;;;;;;;23.25;20.50;;;;;20.39;73.39;100976.28;5016908;28;45383;-80
2022/07/23 05:40:07;;;;;;;;;22.75;21.75;;;;;20.48;72.49;100977.38;5017387;28;45331;-76
2022/07/23 05:42:33;;;;;;;;;22.00;22.00;;;;;20.50;71.67;100967.41;5017685;28;45462;-75
2022/07/23 05:44:59;;;;;;;;;23.50;21.25;;;;;20.60;71.14;100971.09;5015084;28;46269;-79
2022/07/23 05:47:24;;;;;;;;;21.25;20.00;;;;;20.63;71.06;100972.69;5016878;28;45487;-77
2022/07/23 05:49:49;;;;;;;;;22.50;20.75;;;;;20.58;70.75;100967.69;5014181;28;45647;-72
2022/07/23 05:52:15;;;;;;;;;20.75;20.75;;;;;20.66;71.33;100975.13;5014121;28;45478;-70
2022/07/23 05:54:40;;;;;;;;;24.25;24.25;;;;;20.66;71.05;100981.31;5014708;28;46367;-73
2022/07/23 05:57:06;;;;;;;;;22.25;21.00;;;;;20.67;70.24;100982.16;5015470;28;45275;-71
2022/07/23 05:59:32;;;;;;;;;21.50;20.25;;;;;20.67;70.75;100982.16;5013863;28;45317;-69
2022/07/23 06:01:57;;;;;;;;;20.00;20.00;;;;;20.70;71.01;100976.59;5013117;28;45544;-66
2022/07/23 06:04:22;;;;;;;;;25.25;23.25;;;;;20.82;71.15;100983.69;5014507;28;45470;-68
2022/07/23 06:06:48;;;;;;;;;27.00;25.75;;;;;20.92;71.27;100978.50;5015279;28;45253;-69
2022/07/23 06:09:13;;;;;;;;;25.75;25.75;;;;;21.07;71.03;100983.63;5014406;28;45210;-69
2022/07/23 06:11:39;;;;;;;;;29.25;26.00;;;;;21.23;71.26;100996.66;5014643;28;45553;-69
2022/07/23 06:14:05;;;;;;;;;27.75;24.50;;;;;21.34;70.50;100993.97;5013916;28;46488;-73
2022/07/23 06:16:30;;;;;;;;;29.25;29.00;;;;;21.43;70.44;101000.38;5014048;28;45392;-69
2022/07/23 06:18:56;;;;;;;;;26.00;25.75;;;;;21.43;70.70;101003.06;5017905;28;45426;-68
2022/07/23 06:21:21;;;;;;;;;28.25;26.75;;;;;21.45;70.63;101001.13;5014861;28;45666;-67
2022/07/23 06:23:47;;;;;;;;;30.50;29.75;;;;;21.40;70.84;100997.97;5013846;28;47847;-71
2022/07/23 06:26:12;;;;;;;;;34.75;31.50;;;;;21.34;70.85;101004.66;5016125;28;45411;-72
2022/07/23 06:28:37;;;;;;;;;34.75;32.25;;;;;21.22;71.13;101011.81;5014839;28;45211;-70
2022/07/23 06:31:03;;;;;;;;;37.25;32.75;;;;;21.13;71.53;101013.38;5013993;28;45487;-69
2022/07/23 06:33:28;;;;;;;;;37.25;33.00;;;;;21.10;71.90;101015.47;5013387;28;46325;-66
2022/07/23 06:35:53;;;;;;;;;36.50;33.50;;;;;21.08;72.11;101020.09;5017186;28;45407;-65
2022/07/23 06:38:19;;;;;;;;;41.50;34.00;;;;;21.10;72.36;101016.31;5014570;28;45489;-69
2022/07/23 06:40:44;;;;;;;;;36.25;32.75;;;;;21.16;72.25;101025.69;5014630;28;45349;-68
2022/07/23 06:43:10;;;;;;;;;40.00;34.25;;;;;21.20;71.92;101020.94;5012953;28;47250;-69
2022/07/23 06:45:36;;;;;;;;;44.00;35.75;;;;;21.14;72.20;101028.47;5014082;28;45395;-70
2022/07/23 06:48:02;;;;;;;;;45.00;37.25;;;;;21.10;72.60;101023.50;5017266;28;45287;-67
2022/07/23 06:50:28;;;;;;;;;45.50;35.75;;;;;21.08;72.31;101028.09;5015288;28;45592;-71
2022/07/23 06:52:53;;;;;;;;;46.50;36.25;;;;;21.03;72.93;101025.78;5019983;28;46160;-66
2022/07/23 06:55:19;;;;;;;;;44.00;36.00;;;;;21.05;73.16;101031.84;5015701;28;45450;-69
2022/07/23 06:57:44;;;;;;;;;45.25;38.00;;;;;21.06;72.86;101030.88;5017503;28;45327;-71
2022/07/23 07:00:10;;;;;;;;;44.00;37.25;;;;;21.05;73.16;101031.03;5017424;28;45548;-71
2022/07/23 07:02:36;;;;;;;;;42.50;35.25;;;;;21.17;73.22;101028.22;5017484;28;45691;-71
2022/07/23 07:05:02;;;;;;;;;44.00;37.00;;;;;21.27;73.07;101027.53;5018231;28;45325;-69
2022/07/23 07:07:27;;;;;;;;;46.50;39.00;;;;;21.31;72.91;101029.81;5015305;28;45543;-72
2022/07/23 07:09:53;;;;;;;;;44.25;36.75;;;;;21.37;72.83;101036.53;5025297;28;45352;-68
2022/07/23 07:12:18;;;;;;;;;49.75;41.75;;;;;21.48;72.82;101043.69;5018765;28;45667;-80
2022/07/23 07:14:43;;;;;;;;;55.25;42.25;;;;;21.51;72.79;101051.47;5018316;28;45260;-76
2022/07/23 07:17:10;;;;;;;;;49.25;39.50;;;;;21.57;72.54;101047.47;5017966;28;45814;-73
2022/07/23 07:19:36;;;;;;;;;49.75;40.00;;;;;21.68;72.16;101047.50;5017963;28;45237;-67
2022/07/23 07:22:02;;;;;;;;;48.25;39.50;;;;;21.76;71.82;101052.25;5016314;28;46318;-75
2022/07/23 07:24:27;;;;;;;;;42.75;37.00;;;;;21.81;71.88;101062.56;5017920;28;45377;-76
2022/07/23 07:26:52;;;;;;;;;50.25;42.25;;;;;21.84;71.86;101065.88;5019054;28;45840;-77
2022/07/23 07:29:18;;;;;;;;;50.50;40.50;;;;;21.86;71.86;101073.75;5018920;28;45232;-70
2022/07/23 07:31:43;;;;;;;;;48.50;41.00;;;;;21.92;71.87;101064.41;5017104;28;53677;-74
2022/07/23 07:34:08;;;;;;;;;44.25;38.25;;;;;21.99;71.46;101074.47;5016937;28;45459;-74
2022/07/23 07:36:36;;;;;;;;;53.25;42.75;;;;;22.00;71.70;101075.34;5016179;28;45361;-74
2022/07/23 07:39:06;;;;;;;;;45.75;37.75;;;;;22.03;71.23;101067.91;5022354;28;45715;-73
2022/07/23 07:41:32;;;;;;;;;48.00;40.75;;;;;22.04;71.11;101066.06;5020326;28;45474;-73
2022/07/23 07:43:57;;;;;;;;;50.50;41.75;;;;;22.08;71.32;101070.22;5017197;28;45332;-69
2022/07/23 07:46:23;;;;;;;;;49.25;41.50;;;;;22.16;71.32;101072.25;5017719;28;45382;-73
2022/07/23 07:48:50;;;;;;;;;46.50;39.50;;;;;22.26;70.81;101073.19;5018492;28;45638;-73
2022/07/23 07:51:16;;;;;;;;;54.00;43.00;;;;;22.41;70.04;101076.44;5016909;28;45384;-80
2022/07/23 07:53:41;;;;;;;;;49.75;41.50;;;;;22.52;69.69;101074.72;5016836;28;45605;-65
2022/07/23 07:56:06;;;;;;;;;44.50;37.75;;;;;22.55;69.35;101083.38;5017333;28;45327;-73
2022/07/23 07:58:32;;;;;;;;;46.75;40.00;;;;;22.62;68.92;101075.66;5017055;28;45284;-72
2022/07/23 08:00:57;;;;;;;;;49.50;40.25;;;;;22.75;68.68;101086.22;5016033;28;46067;-67
2022/07/23 08:03:22;;;;;;;;;48.50;39.75;;;;;22.85;68.44;101094.34;5016784;28;45474;-70
2022/07/23 08:05:48;;;;;;;;;48.75;41.25;;;;;22.91;67.84;101083.94;5017340;28;45281;-69
2022/07/23 08:08:16;;;;;;;;;50.00;42.50;;;;;23.05;67.29;101088.16;5017189;28;45195;-71
2022/07/23 08:10:43;;;;;;;;;52.25;43.75;;;;;23.18;67.57;101084.41;5015350;28;48330;-74
2022/07/23 08:13:13;;;;;;;;;46.50;38.00;;;;;23.26;66.75;101094.50;5016898;28;45518;-71
2022/07/23 08:15:38;;;;;;;;;46.25;39.25;;;;;23.25;66.57;101088.28;5016737;28;45341;-73
2022/07/23 08:18:04;;;;;;;;;50.25;40.75;;;;;23.39;66.64;101089.78;5016542;28;45619;-77
2022/07/23 08:20:29;;;;;;;;;49.25;41.75;;;;;23.52;65.69;101089.56;5016434;28;46322;-72
2022/07/23 08:22:56;;;;;;;;;48.00;40.50;;;;;23.62;65.53;101098.50;5016741;28;45261;-77
2022/07/23 08:25:26;;;;;;;;;49.50;41.00;;;;;23.66;65.11;101093.72;5016800;28;45228;-71
2022/07/23 08:27:52;;;;;;;;;46.00;39.00;;;;;23.69;64.83;101100.66;5017962;28;45369;-74
2022/07/23 08:30:18;;;;;;;;;49.75;41.00;;;;;23.69;64.42;101093.44;5016265;28;45412;-73
2022/07/23 08:32:54;;;;;;;;;54.00;45.00;;;;;23.74;64.07;101106.47;5015252;28;45359;-78
2022/07/23 08:35:29;;;;;;;;;48.75;40.75;;;;;23.91;64.07;101110.34;5016835;28;45355;-75
2022/07/23 08:37:55;;;;;;;;;42.00;36.25;;;;;24.17;63.33;101116.13;5017173;28;45206;-79
2022/07/23 08:40:21;;;;;;;;;47.50;41.00;;;;;24.45;62.82;101113.63;5016146;28;46304;-77
2022/07/23 08:42:49;;;;;;;;;47.25;40.00;;;;;24.65;61.96;101116.31;5014785;28;45341;-69
2022/07/23 08:45:18;;;;;;;;;45.00;38.75;;;;;24.75;60.73;101121.75;5016477;28;45426;-68
2022/07/23 08:47:44;;;;;;;;;49.75;41.25;;;;;24.78;60.96;101116.91;5016974;28;45528;-71
2022/07/23 08:50:10;;;;;;;;;46.25;39.00;;;;;24.86;60.53;101118.03;5016260;28;45664;-75
2022/07/23 08:52:36;;;;;;;;;48.00;41.00;;;;;24.93;60.79;101114.66;5019802;28;45327;-70
2022/07/23 08:55:02;;;;;;;;;45.50;39.50;;;;;24.99;60.27;101117.75;5024680;28;44815;-71
2022/07/23 08:57:27;;;;;;;;;48.00;40.75;;;;;25.01;60.24;101122.00;5021680;28;45714;-68
2022/07/23 08:59:52;;;;;;;;;46.50;39.75;;;;;25.11;60.08;101121.97;5017057;28;47052;-67
2022/07/23 09:02:18;;;;;;;;;45.25;38.50;;;;;25.22;59.10;101123.69;5016756;28;45295;-68
2022/07/23 09:04:43;;;;;;;;;43.75;37.00;;;;;25.33;59.09;101122.66;5017100;28;45290;-67
2022/07/23 09:07:09;;;;;;;;;41.25;35.75;;;;;25.41;59.02;101113.84;5016305;28;45269;-67
2022/07/23 09:09:34;;;;;;;;;46.00;39.00;;;;;25.44;58.32;101125.16;5030531;28;46905;-66
2022/07/23 09:12:08;;;;;;;;;44.25;37.75;;;;;25.46;58.43;101125.94;5014663;28;45403;-70
2022/07/23 09:14:42;;;;;;;;;43.25;37.25;;;;;25.52;58.46;101128.03;5015419;28;45426;-69
2022/07/23 09:17:16;;;;;;;;;43.25;37.00;;;;;25.61;57.47;101122.75;5015798;28;45212;-66
2022/07/23 09:19:42;;;;;;;;;46.25;39.75;;;;;25.52;57.62;101114.56;5014083;28;47276;-70
2022/07/23 09:22:17;;;;;;;;;45.50;39.50;;;;;25.40;57.57;101114.84;5015605;28;45182;-74
2022/07/23 09:25:21;;;;;;;;;50.75;41.00;;;;;25.24;58.34;101116.31;5015685;28;45244;-70
2022/07/23 09:27:59;;;;;;;;;45.25;38.75;;;;;25.29;57.88;101105.09;5015668;28;45366;-74
2022/07/23 09:30:27;;;;;;;;;40.25;35.50;;;;;25.27;57.52;101109.78;5015354;28;47233;-80
2022/07/23 09:33:14;;;;;;;;;44.00;37.50;;;;;25.36;57.92;101107.06;5015387;28;45309;-77
2022/07/23 09:35:58;;;;;;;;;44.00;38.00;;;;;25.50;57.67;101119.25;5015477;28;45333;-77
2022/07/23 09:38:24;;;;;;;;;46.00;39.00;;;;;25.59;56.93;101114.81;5015765;28;45422;-74
2022/07/23 09:41:09;;;;;;;;;42.00;35.50;;;;;25.74;56.88;101114.31;5016397;28;46203;-74
2022/07/23 09:43:34;;;;;;;;;36.50;33.50;;;;;25.83;56.62;101112.59;5016552;28;45270;-75
2022/07/23 09:46:23;;;;;;;;;43.75;38.00;;;;;25.94;56.51;101112.41;5016723;28;45264;-80
2022/07/23 09:48:51;;;;;;;;;42.00;36.50;;;;;26.06;55.98;101113.06;5017771;28;45518;-73
2022/07/23 09:51:36;;;;;;;;;41.25;35.00;;;;;26.18;55.67;101119.09;5018325;28;46366;-73
2022/07/23 09:54:02;;;;;;;;;44.75;38.50;;;;;26.35;55.32;101109.34;5019293;28;45324;-80
2022/07/23 09:56:28;;;;;;;;;42.75;37.00;;;;;26.57;54.94;101120.69;5024162;28;45316;-76
2022/07/23 09:59:11;;;;;;;;;37.25;33.75;;;;;26.74;53.89;101111.72;5022465;28;45583;-78
2022/07/23 10:01:37;;;;;;;;;39.50;34.50;;;;;26.69;53.93;101109.50;5022297;28;46687;-71
2022/07/23 10:04:04;;;;;;;;;47.75;39.50;;;;;26.58;53.78;101114.28;5021636;28;45415;-70
2022/07/23 10:06:31;;;;;;;;;42.75;34.00;;;;;26.58;53.97;101106.19;5021075;28;45348;-75
2022/07/23 10:08:59;;;;;;;;;45.00;37.50;;;;;26.57;53.51;101108.06;5018677;28;45168;-75
2022/07/23 10:11:26;;;;;;;;;47.25;36.75;;;;;26.54;53.58;101103.81;5016025;28;47231;-77
2022/07/23 10:13:58;;;;;;;;;42.50;36.75;;;;;26.50;53.41;101115.03;5017496;28;45383;-72
2022/07/23 10:16:23;;;;;;;;;44.75;34.75;;;;;26.46;53.66;101113.66;5015838;28;45413;-69
2022/07/23 10:18:49;;;;;;;;;43.25;35.75;;;;;26.50;53.87;101107.81;5016777;28;45359;-74
2022/07/23 10:21:39;;;;;;;;;42.50;37.00;;;;;26.68;52.94;101107.81;5032207;28;47093;-67
2022/07/23 10:24:15;;;;;;;;;44.00;35.00;;;;;26.68;52.91;101102.44;5021203;28;45340;-71
2022/07/23 10:27:02;;;;;;;;;39.75;34.50;;;;;26.83;52.97;101110.81;5017754;28;45622;-69
2022/07/23 10:29:42;;;;;;;;;41.50;35.50;;;;;26.87;52.74;101103.28;5019325;28;45859;-68
2022/07/23 10:32:49;;;;;;;;;39.25;34.00;;;;;26.90;52.52;101108.38;5021122;28;45396;-68
2022/07/23 10:35:20;;;;;;;;;46.25;37.50;;;;;26.96;52.95;101109.56;5020097;28;45368;-74
2022/07/23 10:37:49;;;;;;;;;46.50;37.50;;;;;26.94;52.40;101104.34;5019558;28;45307;-74
2022/07/23 10:40:20;;;;;;;;;40.50;35.25;;;;;26.91;52.57;101104.66;5020387;28;45298;-71
2022/07/23 10:42:51;;;;;;;;;40.75;35.75;;;;;26.83;52.68;101101.91;5018902;28;48132;-73
2022/07/23 10:45:26;;;;;;;;;36.00;32.00;;;;;26.83;52.99;101118.94;5019306;28;45330;-76
2022/07/23 10:47:51;;;;;;;;;39.75;34.50;;;;;26.88;52.77;101120.31;5019793;28;45406;-74
2022/07/23 10:50:34;;;;;;;;;43.25;36.75;;;;;26.96;52.38;101129.34;5018532;28;45558;-72
2022/07/23 10:53:06;;;;;;;;;40.75;34.75;;;;;27.10;52.01;101127.94;5019567;28;45966;-68
2022/07/23 10:55:31;;;;;;;;;39.75;34.25;;;;;27.29;51.61;101127.88;5020453;28;45447;-70
2022/07/23 10:57:57;;;;;;;;;35.75;32.50;;;;;27.21;51.18;101126.81;5017886;28;45442;-68
2022/07/23 11:00:24;;;;;;;;;40.25;34.00;;;;;27.16;51.59;101139.09;5017655;28;45256;-71
2022/07/23 11:02:52;;;;;;;;;40.00;33.00;;;;;27.07;51.63;101132.78;5018831;28;45668;-70
2022/07/23 11:05:26;;;;;;;;;41.00;35.25;;;;;27.06;51.88;101134.66;5017099;28;46058;-72
2022/07/23 11:08:03;;;;;;;;;38.25;32.75;;;;;27.04;51.88;101144.75;5018897;28;45280;-71